Midland, MI

9:33 AM EDT on August 29, 2014 (GMT -0400)
Central Midland School | Change Station
CLOSE
Current Station
Personal Weather Station
Location: Midland, MI
Elevation: 640 ft
Nearby Weather Stations

Elev 640 ft 43.62 °N, 84.23 °W | Updated 3 minutes ago

Overcast
Overcast
62.9 °F
Feels Like 62.9 °F
N
4.0
Wind Variable Wind from SE
Gusts 11.0 mph

Today
High -- | Low -- °F
--% Chance of Precip.
Yesterday
High -- | Low -- °F
Precip. -- in
6:57 AM 8:17 PM
Waxing Crescent, 14% visible
Pressure 30.11 in
Visibility 10.0 miles
Clouds Mostly Cloudy 3700 ft
Overcast 7000 ft
Dew Point 57 °F
Humidity 82%
Rainfall 0.00 in
Snow Depth Not available.
UV 0.0 out of 12
Pollen 6.30 out of 12
Ozone Good
PM2.5 Good
Flu Activity Not available.
METAR KIKW 291313Z AUTO 14006KT 10SM BKN037 OVC070 17/13 A3011 RMK AO2 T01730127

More Conditions Fewer Conditions

Pressure 30.11 in
Visibility 10.0 miles
Clouds Mostly Cloudy 3700 ft
Overcast 7000 ft
Dew Point 57 °F
Humidity 82%
Rainfall 0.00 in
Snow Depth Not available.
UV 0.0 out of 12
Pollen 6.30 out of 12
Ozone Good
PM2.5 Good
Flu Activity Not available.
METAR KIKW 291313Z AUTO 14006KT 10SM BKN037 OVC070 17/13 A3011 RMK AO2 T01730127

More Conditions Fewer Conditions

10-Day Weather Forecast

Almanac

Astronomy

Aug. 29, 2014 Rise Set
Actual Time 6:57 AM EDT 8:17 PM EDT
Civil Twilight 6:27 AM EDT 8:47 PM EDT
Nautical Twilight 5:51 AM EDT 9:23 PM EDT
Astronomical Twilight 5:13 AM EDT 10:00 PM EDT
Moon 10:54 AM EDT 10:05 PM EDT
Length of Visible Light 14h 19m
Length of Day
13h 20m
Tomorrow will be 2m 52s shorter.
Waxing Crescent, 14% of the Moon is Illuminated
Today
Waxing Crescent
Sep 2
First Quarter
Sep 8
Full
Sep 15
Last Quarter
Sep 24
New

Today's Extremes

State Highs State Lows

Community

WunderPhotos

Upload Photos

1,748,229 photos uploaded!

Nearby

Air Quality

  Air Quality AQ Index Pollutant
Yesterday Good
OZONE
Yesterday Good
PM2.5
Current Good
PM2.5
Current Good
OZONE
Friday Good
OZONE
Friday Good
PM2.5

Snow Depth

Station Depth Elevation
No new snow has been reported.

Earthquake Activity

City Distance Mag. Time & Date
No recent earthquake activity has been reported nearby.
Minimum magnitude displayed is 2.5.

Coastal Water Temperatures

Place Temperature
Harbor Beach, MI 68.0 °F

Nearby Weather Stations